Time;durP1;ratioP1;P1;durP2;ratioP2;P2;SDS_P1;SDS_P2;PMS_P1;PMS_P2;Temp;Humidity;BMP_temperature;BMP_pressure;BME280_temperature;BME280_humidity;BME280_pressure;Samples;Min_cycle;Max_cycle;Signal;HPM_P1;HPM_P2
2021/06/30 00:00:15;;;;;;;11.68;3.50;;;27.70;92.90;;;;;;5125606;28;20015;-52
2021/06/30 00:02:42;;;;;;;12.90;3.60;;;27.70;92.80;;;;;;5125086;28;20030;-47
2021/06/30 00:05:10;;;;;;;6.47;3.30;;;27.70;92.80;;;;;;5125010;28;20034;-46
2021/06/30 00:07:37;;;;;;;10.27;3.20;;;27.60;92.80;;;;;;5125300;28;20011;-43
2021/06/30 00:10:07;;;;;;;11.00;2.95;;;27.60;92.90;;;;;;5125144;28;20016;-47
2021/06/30 00:12:33;;;;;;;8.30;3.38;;;27.70;92.90;;;;;;5123148;28;20023;-44
2021/06/30 00:15:03;;;;;;;10.65;3.15;;;27.60;92.90;;;;;;5125159;28;20072;-45
2021/06/30 00:17:30;;;;;;;12.27;4.55;;;27.60;92.90;;;;;;5123674;28;20145;-43
2021/06/30 00:19:57;;;;;;;10.43;4.15;;;27.60;92.80;;;;;;5125069;28;20072;-44
2021/06/30 00:22:24;;;;;;;7.50;3.83;;;27.60;92.90;;;;;;5124992;28;20019;-48
2021/06/30 00:24:50;;;;;;;12.70;4.63;;;27.60;92.90;;;;;;5125290;28;20086;-51
2021/06/30 00:27:17;;;;;;;9.80;3.70;;;27.60;92.90;;;;;;5124686;28;20026;-46
2021/06/30 00:29:44;;;;;;;11.40;3.58;;;27.50;92.80;;;;;;5124928;28;20019;-49
2021/06/30 00:32:11;;;;;;;7.88;3.40;;;27.50;92.90;;;;;;5124726;28;20246;-47
2021/06/30 00:34:37;;;;;;;12.07;3.92;;;27.50;92.80;;;;;;5124869;28;20064;-49
2021/06/30 00:37:04;;;;;;;11.93;6.95;;;27.50;92.80;;;;;;5124553;28;20323;-52
2021/06/30 00:39:31;;;;;;;10.02;4.15;;;27.50;92.70;;;;;;5124567;28;20323;-44
2021/06/30 00:41:57;;;;;;;12.68;3.70;;;27.50;92.80;;;;;;5124624;28;20058;-55
2021/06/30 00:44:24;;;;;;;9.32;3.60;;;27.50;92.80;;;;;;5124445;28;20107;-49
2021/06/30 00:46:53;;;;;;;;;;;27.50;92.80;;;;;;5144564;27;20564;-45
2021/06/30 00:49:19;;;;;;;;;;;27.50;92.80;;;;;;5145282;27;19914;-48
2021/06/30 00:51:45;;;;;;;;;;;27.50;92.90;;;;;;5145419;27;20104;-46
2021/06/30 00:54:12;;;;;;;;;;;27.50;93.20;;;;;;5127056;27;19907;-46
2021/06/30 00:56:38;;;;;;;;;;;27.50;93.00;;;;;;5145665;27;19925;-44
2021/06/30 00:59:05;;;;;;;;;;;27.50;93.10;;;;;;5126945;28;19908;-45
2021/06/30 01:01:31;;;;;;;;;;;27.40;93.10;;;;;;5145679;27;19903;-44
2021/06/30 01:03:57;;;;;;;;;;;27.50;93.10;;;;;;5145018;27;19915;-50
2021/06/30 01:06:23;;;;;;;;;;;27.40;93.00;;;;;;5127317;28;19911;-44
2021/06/30 01:08:50;;;;;;;;;;;27.40;93.20;;;;;;5144909;28;19982;-45
2021/06/30 01:11:16;;;;;;;;;;;27.40;93.20;;;;;;5145097;28;19904;-52
2021/06/30 01:13:43;;;;;;;;;;;27.40;93.30;;;;;;5145268;28;19907;-46
2021/06/30 01:16:09;;;;;;;;;;;27.40;93.30;;;;;;5145163;28;19907;-47
2021/06/30 01:18:36;;;;;;;;;;;27.40;93.20;;;;;;5145563;28;20138;-50
2021/06/30 01:21:03;;;;;;;;;;;27.40;93.20;;;;;;5145274;28;19911;-44
2021/06/30 01:23:31;;;;;;;;;;;27.40;93.10;;;;;;5144750;28;19939;-50
2021/06/30 01:25:58;;;;;;;;;;;27.40;93.10;;;;;;5145005;28;19982;-46
2021/06/30 01:28:25;;;;;;;;;;;27.40;93.10;;;;;;5145586;28;20110;-47
2021/06/30 01:30:52;;;;;;;;;;;27.40;93.10;;;;;;5145254;28;19907;-46
2021/06/30 01:33:18;;;;;;;;;;;27.40;92.90;;;;;;5126623;28;19982;-44
2021/06/30 01:35:45;;;;;;;;;;;27.40;92.90;;;;;;5145662;28;19907;-51
2021/06/30 01:38:12;;;;;;;;;;;27.40;92.80;;;;;;5126524;28;20133;-46
2021/06/30 01:40:40;;;;;;;;;;;27.40;92.70;;;;;;5126713;28;19911;-48
2021/06/30 01:43:07;;;;;;;;;;;27.30;92.40;;;;;;5126488;28;19910;-46
2021/06/30 01:45:33;;;;;;;;;;;27.30;92.30;;;;;;5145393;28;20077;-49
2021/06/30 01:47:59;;;;;;;;;;;27.30;92.20;;;;;;5144831;28;19919;-47
2021/06/30 01:50:26;;;;;;;;;;;27.30;92.40;;;;;;5126809;28;19907;-44
2021/06/30 01:52:52;;;;;;;;;;;27.30;92.00;;;;;;5145093;27;20069;-47
2021/06/30 01:55:18;;;;;;;;;;;27.30;92.10;;;;;;5129696;27;19907;-44
2021/06/30 01:57:48;;;;;;;;;;;27.30;92.10;;;;;;5148696;27;19935;-48
2021/06/30 02:00:16;;;;;;;;;;;27.30;92.10;;;;;;5149076;27;19915;-47
2021/06/30 02:02:42;;;;;;;;;;;27.30;92.10;;;;;;5130225;27;19915;-45
2021/06/30 02:05:10;;;;;;;;;;;27.30;92.10;;;;;;5148984;27;19921;-48
2021/06/30 02:07:37;;;;;;;;;;;27.20;92.10;;;;;;5148474;27;20115;-47
2021/06/30 02:10:09;;;;;;;;;;;27.20;92.10;;;;;;5148856;27;19907;-51
2021/06/30 02:12:39;;;;;;;;;;;27.20;92.10;;;;;;5148292;27;19911;-47
2021/06/30 02:15:07;;;;;;;;;;;27.20;92.30;;;;;;5148868;27;19908;-46
2021/06/30 02:17:33;;;;;;;;;;;27.20;92.20;;;;;;5138560;27;20211;-43
2021/06/30 02:19:59;;;;;;;;;;;27.20;92.20;;;;;;5128462;28;20073;-45
2021/06/30 02:22:26;;;;;;;;;;;27.20;92.10;;;;;;5109203;28;19974;-46
2021/06/30 02:24:56;;;;;;;;;;;27.20;92.00;;;;;;5109554;28;20240;-45
2021/06/30 02:27:22;;;;;;;;;;;27.20;92.00;;;;;;5134517;27;20096;-45
2021/06/30 02:29:49;;;;;;;;;;;27.10;91.90;;;;;;5148529;27;19947;-46
2021/06/30 02:32:15;;;;;;;;;;;27.10;91.80;;;;;;5148032;27;19915;-43
2021/06/30 02:34:41;;;;;;;;;;;27.10;91.90;;;;;;5148288;27;19946;-48
2021/06/30 02:37:07;;;;;;;;;;;27.10;91.80;;;;;;5147874;27;20099;-48
2021/06/30 02:39:33;;;;;;;;;;;27.10;91.80;;;;;;5148051;27;19924;-44
2021/06/30 02:42:00;;;;;;;;;;;27.10;91.80;;;;;;5147844;27;19904;-44
2021/06/30 02:44:26;;;;;;;;;;;27.00;91.60;;;;;;5148177;27;20203;-51
2021/06/30 02:46:52;;;;;;;;;;;27.10;91.70;;;;;;5147777;27;19912;-46
2021/06/30 02:49:18;;;;;;;;;;;27.00;91.80;;;;;;5147938;27;19979;-50
2021/06/30 02:51:45;;;;;;;;;;;27.00;91.70;;;;;;5147514;27;19935;-49
2021/06/30 02:54:11;;;;;;;;;;;26.90;91.60;;;;;;5147830;27;19911;-44
2021/06/30 02:56:38;;;;;;;;;;;26.90;91.80;;;;;;5147510;27;19904;-52
2021/06/30 02:59:05;;;;;;;;;;;27.00;91.90;;;;;;5147697;27;19990;-45
2021/06/30 03:01:31;;;;;;;;;;;27.00;92.10;;;;;;5147568;27;19910;-50
2021/06/30 03:03:57;;;;;;;;;;;26.90;91.90;;;;;;5147854;27;19911;-46
2021/06/30 03:06:23;;;;;;;;;;;26.90;92.00;;;;;;5145714;27;19907;-44
2021/06/30 03:08:50;;;;;;;;;;;26.90;92.10;;;;;;5107108;28;20204;-46
2021/06/30 03:11:16;;;;;;;;;;;26.90;92.20;;;;;;5126853;28;19935;-51
2021/06/30 03:13:43;;;;;;;;;;;26.90;92.10;;;;;;5146756;27;19903;-51
2021/06/30 03:16:09;;;;;;;;;;;26.90;92.10;;;;;;5147327;27;20214;-51
2021/06/30 03:18:35;;;;;;;;;;;26.90;92.10;;;;;;5146968;27;19910;-46
2021/06/30 03:21:01;;;;;;;;;;;26.90;92.20;;;;;;5147248;27;19978;-47
2021/06/30 03:23:28;;;;;;;;;;;26.90;92.30;;;;;;5146853;27;19903;-45
2021/06/30 03:25:55;;;;;;;;;;;26.90;92.30;;;;;;5147086;27;19913;-42
2021/06/30 03:28:27;;;;;;;;;;;26.90;92.30;;;;;;5147189;27;19904;-48
2021/06/30 03:30:53;;;;;;;;;;;26.90;92.00;;;;;;5129230;27;19919;-51
2021/06/30 03:33:20;;;;;;;;;;;26.90;91.90;;;;;;5124657;27;19910;-56
2021/06/30 03:35:46;;;;;;;;;;;26.90;91.80;;;;;;5144620;27;19933;-54
2021/06/30 03:38:16;;;;;;;;;;;26.90;91.90;;;;;;5124185;27;19969;-50
2021/06/30 03:40:42;;;;;;;;;;;26.90;91.80;;;;;;5103791;28;19924;-50
2021/06/30 03:43:15;;;;;;;;;;;26.80;92.00;;;;;;5110879;28;19908;-48
2021/06/30 03:45:42;;;;;;;;;;;26.90;91.80;;;;;;5105679;28;19942;-52
2021/06/30 03:48:08;;;;;;;;;;;26.80;92.10;;;;;;5105576;28;19980;-53
2021/06/30 03:50:35;;;;;;;;;;;26.80;91.90;;;;;;5105589;28;19919;-47
2021/06/30 03:53:03;;;;;;;;;;;26.80;92.10;;;;;;5105736;28;19904;-49
2021/06/30 03:55:32;;;;;;;;;;;26.80;92.30;;;;;;5102849;28;19912;-48
2021/06/30 03:58:12;;;;;;;;;;;26.80;92.10;;;;;;5104665;28;19934;-47
2021/06/30 04:00:38;;;;;;;;;;;26.80;92.30;;;;;;5104432;28;19953;-52
2021/06/30 04:03:07;;;;;;;;;;;26.80;92.50;;;;;;5105425;28;19912;-50
2021/06/30 04:05:33;;;;;;;;;;;26.80;92.50;;;;;;5105809;28;19940;-48
2021/06/30 04:07:59;;;;;;;;;;;26.80;92.60;;;;;;5103926;28;19979;-48
2021/06/30 04:10:27;;;;;;;;;;;26.80;92.60;;;;;;5101859;28;19912;-48
2021/06/30 04:12:56;;;;;;;;;;;26.80;92.70;;;;;;5104782;28;19911;-48
2021/06/30 04:15:22;;;;;;;;;;;26.90;92.90;;;;;;5103830;28;19919;-49
2021/06/30 04:17:48;;;;;;;;;;;26.90;92.90;;;;;;5104174;28;19943;-50
2021/06/30 04:20:14;;;;;;;;;;;26.80;93.00;;;;;;5104715;28;19912;-45
2021/06/30 04:22:41;;;;;;;;;;;26.80;93.10;;;;;;5103342;28;19915;-48
2021/06/30 04:25:07;;;;;;;;;;;26.80;93.30;;;;;;5086192;28;20189;-45
2021/06/30 04:27:34;;;;;;;;;;;26.80;93.50;;;;;;5103216;28;19911;-58
2021/06/30 04:30:01;;;;;;;;;;;26.80;93.50;;;;;;5103875;28;19916;-45
2021/06/30 04:32:29;;;;;;;;;;;26.80;93.70;;;;;;5104248;28;20204;-51
2021/06/30 04:34:56;;;;;;;;;;;26.80;93.90;;;;;;5104760;28;20219;-52
2021/06/30 04:37:22;;;;;;;;;;;26.80;93.90;;;;;;5098886;28;19912;-52
2021/06/30 04:39:49;;;;;;;;;;;26.80;94.00;;;;;;5112490;28;19953;-53
2021/06/30 04:42:18;;;;;;;;;;;26.90;94.00;;;;;;5124884;28;20220;-52
2021/06/30 04:44:45;;;;;;;;;;;26.90;93.80;;;;;;5125186;28;19950;-59
2021/06/30 04:47:11;;;;;;;;;;;26.90;93.60;;;;;;5124387;28;20204;-51
2021/06/30 04:49:38;;;;;;;;;;;26.90;93.80;;;;;;5123294;28;19912;-52
2021/06/30 04:52:04;;;;;;;;;;;27.00;93.60;;;;;;5105350;28;19935;-43
2021/06/30 04:54:30;;;;;;;;;;;27.00;93.40;;;;;;5124169;28;19911;-48
2021/06/30 04:56:57;;;;;;;;;;;26.90;93.30;;;;;;5134152;27;19915;-49
2021/06/30 04:59:23;;;;;;;;;;;26.90;93.40;;;;;;5123716;28;20133;-53
2021/06/30 05:01:50;;;;;;;;;;;26.90;93.40;;;;;;5135785;27;19946;-53
2021/06/30 05:04:18;;;;;;;;;;;26.90;93.40;;;;;;5124244;28;19983;-46
2021/06/30 05:06:44;;;;;;;;;;;26.90;93.50;;;;;;5121699;28;19912;-50
2021/06/30 05:09:10;;;;;;;;;;;26.80;93.40;;;;;;5124273;28;19912;-50
2021/06/30 05:11:36;;;;;;;;;;;26.80;93.60;;;;;;5124383;28;19945;-43
2021/06/30 05:14:03;;;;;;;;;;;26.80;93.70;;;;;;5121223;28;19911;-52
2021/06/30 05:16:29;;;;;;;;;;;26.80;93.80;;;;;;5123999;28;20035;-46
2021/06/30 05:18:55;;;;;;;;;;;26.70;93.70;;;;;;5123960;28;20167;-42
2021/06/30 05:21:22;;;;;;;;;;;26.70;93.70;;;;;;5105486;28;20130;-45
2021/06/30 05:23:48;;;;;;;;;;;26.70;93.70;;;;;;5124039;28;19912;-43
2021/06/30 05:26:14;;;;;;;;;;;26.70;93.70;;;;;;5123625;28;19915;-48
2021/06/30 05:28:41;;;;;;;;;;;26.70;93.70;;;;;;5105213;28;20192;-45
2021/06/30 05:31:07;;;;;;;;;;;26.70;93.60;;;;;;5109090;28;19954;-43
2021/06/30 05:33:33;;;;;;;;;;;26.70;93.50;;;;;;5127437;28;19904;-46
2021/06/30 05:36:00;;;;;;;;;;;26.70;93.50;;;;;;5126967;28;19904;-43
2021/06/30 05:38:26;;;;;;;;;;;26.70;93.40;;;;;;5126714;28;20257;-45
2021/06/30 05:40:52;;;;;;;;;;;26.70;93.40;;;;;;5127132;28;20250;-49
2021/06/30 05:43:18;;;;;;;;;;;26.60;93.40;;;;;;5127087;28;20096;-50
2021/06/30 05:45:46;;;;;;;;;;;26.60;93.40;;;;;;5126082;28;19982;-44
2021/06/30 05:48:13;;;;;;;;;;;26.60;93.40;;;;;;5126999;28;19908;-44
2021/06/30 05:50:39;;;;;;;;;;;26.60;93.50;;;;;;5127468;28;19927;-48
2021/06/30 05:53:05;;;;;;;;;;;26.60;93.50;;;;;;5125682;28;20049;-44
2021/06/30 05:55:32;;;;;;;;;;;26.60;93.60;;;;;;5127341;28;19915;-44
2021/06/30 05:57:58;;;;;;;;;;;26.60;93.60;;;;;;5127968;28;19939;-43
2021/06/30 06:00:24;;;;;;;;;;;26.50;93.70;;;;;;5128132;28;19930;-46
2021/06/30 06:02:51;;;;;;;;;;;26.60;93.70;;;;;;5109602;28;19907;-44
2021/06/30 06:05:17;;;;;;;;;;;26.60;93.80;;;;;;5128114;28;19971;-47
2021/06/30 06:07:43;;;;;;;;;;;26.60;93.90;;;;;;5127560;28;19907;-44
2021/06/30 06:10:10;;;;;;;;;;;26.60;93.90;;;;;;5128049;28;19947;-44
2021/06/30 06:12:37;;;;;;;;;;;26.60;93.90;;;;;;5127557;28;19915;-44
2021/06/30 06:15:10;;;;;;;;;;;26.60;93.90;;;;;;5127806;28;19908;-44
2021/06/30 06:17:37;;;;;;;;;;;26.60;93.90;;;;;;5127605;28;19975;-43
2021/06/30 06:20:04;;;;;;;;;;;26.60;93.80;;;;;;5127820;28;19979;-45
2021/06/30 06:22:31;;;;;;;;;;;26.60;93.90;;;;;;5127319;28;19907;-47
2021/06/30 06:24:57;;;;;;;;;;;26.60;93.80;;;;;;5127775;28;19911;-50
2021/06/30 06:27:23;;;;;;;;;;;26.50;93.70;;;;;;5127195;28;20218;-44
2021/06/30 06:29:51;;;;;;;;;;;26.60;93.60;;;;;;5127463;28;19911;-48
2021/06/30 06:32:19;;;;;;;;;;;26.50;93.60;;;;;;5127325;28;19908;-46
2021/06/30 06:34:46;;;;;;;;;;;26.50;93.60;;;;;;5127430;28;19950;-48
2021/06/30 06:37:14;;;;;;;;;;;26.50;93.60;;;;;;5127043;28;19908;-44
2021/06/30 06:39:41;;;;;;;;;;;26.50;93.50;;;;;;5126739;28;19916;-52
2021/06/30 06:42:07;;;;;;;;;;;26.60;93.40;;;;;;5127596;28;19908;-49
2021/06/30 06:44:34;;;;;;;;;;;26.60;93.30;;;;;;5127241;28;19974;-51
2021/06/30 06:47:01;;;;;;;;;;;26.60;93.20;;;;;;5127302;28;19912;-46
2021/06/30 06:49:27;;;;;;;;;;;26.60;93.20;;;;;;5127588;28;20134;-47
2021/06/30 06:51:53;;;;;;;;;;;26.60;93.10;;;;;;5127102;28;19935;-51
2021/06/30 06:54:19;;;;;;;;;;;26.60;93.00;;;;;;5127517;28;19919;-51
2021/06/30 06:56:45;;;;;;;;;;;26.60;93.00;;;;;;5127244;28;19903;-48
2021/06/30 06:59:12;;;;;;;;;;;26.60;92.80;;;;;;5127124;28;19979;-49
2021/06/30 07:01:38;;;;;;;;;;;26.60;92.80;;;;;;5127219;28;19904;-48
2021/06/30 07:04:04;;;;;;;;;;;26.60;92.70;;;;;;5127166;28;19911;-46
2021/06/30 07:06:30;;;;;;;;;;;26.60;92.60;;;;;;5126945;28;19912;-51
2021/06/30 07:08:56;;;;;;;;;;;26.60;92.60;;;;;;5126918;28;19983;-47
2021/06/30 07:11:23;;;;;;;;;;;26.60;92.60;;;;;;5127079;28;19971;-47
2021/06/30 07:13:49;;;;;;;;;;;26.60;92.60;;;;;;5126782;28;19916;-48
2021/06/30 07:16:15;;;;;;;;;;;26.60;92.50;;;;;;5126694;28;19939;-52
2021/06/30 07:18:41;;;;;;;;;;;26.60;92.50;;;;;;5126749;28;20184;-46
2021/06/30 07:21:08;;;;;;;;;;;26.60;92.50;;;;;;5126777;28;19944;-48
2021/06/30 07:23:34;;;;;;;;;;;26.60;92.40;;;;;;5126500;28;19932;-47
2021/06/30 07:26:01;;;;;;;;;;;26.50;92.40;;;;;;5126317;28;19911;-47
2021/06/30 07:28:27;;;;;;;;;;;26.60;92.40;;;;;;5126576;28;20207;-53
2021/06/30 07:30:54;;;;;;;;;;;26.50;92.40;;;;;;5126316;28;19918;-49
2021/06/30 07:33:20;;;;;;;;;;;26.50;92.50;;;;;;5126486;28;20189;-50
2021/06/30 07:35:46;;;;;;;;;;;26.40;92.50;;;;;;5126906;28;19915;-46
2021/06/30 07:38:13;;;;;;;;;;;26.40;92.50;;;;;;5126218;28;19904;-55
2021/06/30 07:40:39;;;;;;;;;;;26.40;92.50;;;;;;5126663;28;20004;-47
2021/06/30 07:43:05;;;;;;;;;;;26.40;92.60;;;;;;5126395;28;19904;-50
2021/06/30 07:45:32;;;;;;;;;;;26.30;92.50;;;;;;5126500;28;19919;-51
2021/06/30 07:47:58;;;;;;;;;;;26.40;92.60;;;;;;5126400;28;19934;-52
2021/06/30 07:50:25;;;;;;;;;;;26.30;92.50;;;;;;5126524;28;20192;-51
2021/06/30 07:52:52;;;;;;;;;;;26.30;92.60;;;;;;5125342;28;19904;-49
2021/06/30 07:55:21;;;;;;;;;;;26.30;92.70;;;;;;5126284;28;19920;-49
2021/06/30 07:57:47;;;;;;;;;;;26.30;92.70;;;;;;5125804;28;19926;-48
2021/06/30 08:00:13;;;;;;;;;;;26.30;92.80;;;;;;5126326;28;19912;-56
2021/06/30 08:02:40;;;;;;;;;;;26.30;92.90;;;;;;5125765;28;19904;-49
2021/06/30 08:05:07;;;;;;;;;;;26.20;92.90;;;;;;5125804;28;19911;-54
2021/06/30 08:07:34;;;;;;;;;;;26.20;92.90;;;;;;5125778;28;19949;-50
2021/06/30 08:10:00;;;;;;;;;;;26.20;92.90;;;;;;5125941;28;19979;-53
2021/06/30 08:12:26;;;;;;;;;;;26.20;92.90;;;;;;5125682;28;19935;-51
2021/06/30 08:14:53;;;;;;;;;;;26.20;92.80;;;;;;5125939;28;19919;-49
2021/06/30 08:17:19;;;;;;;;;;;26.20;92.80;;;;;;5125540;28;19941;-49
2021/06/30 08:19:45;;;;;;;;;;;26.20;92.80;;;;;;5125806;28;19923;-51
2021/06/30 08:22:11;;;;;;;;;;;26.20;92.80;;;;;;5125469;28;19904;-47
2021/06/30 08:24:38;;;;;;;;;;;26.20;92.90;;;;;;5125297;28;19916;-51
2021/06/30 08:27:05;;;;;;;;;;;26.20;92.90;;;;;;5125564;28;19950;-49
2021/06/30 08:29:31;;;;;;;;;;;26.10;93.00;;;;;;5125437;28;19908;-51
2021/06/30 08:31:57;;;;;;;;;;;26.10;92.90;;;;;;5125236;28;19907;-48
2021/06/30 08:34:25;;;;;;;;;;;26.10;92.90;;;;;;5125528;28;20095;-53
2021/06/30 08:37:00;;;;;;;;;;;26.10;92.80;;;;;;5125365;28;19915;-55
2021/06/30 08:39:27;;;;;;;;;;;26.10;92.70;;;;;;5125080;28;19916;-49
2021/06/30 08:41:53;;;;;;;;;;;26.10;92.60;;;;;;5125242;28;19904;-50
2021/06/30 08:44:20;;;;;;;;;;;26.10;92.40;;;;;;5125378;28;19950;-47
2021/06/30 08:46:46;;;;;;;;;;;26.10;92.30;;;;;;5124839;28;19949;-48
2021/06/30 08:49:18;;;;;;;;;;;26.10;92.30;;;;;;5125223;28;19912;-48
2021/06/30 08:51:45;;;;;;;;;;;26.10;92.20;;;;;;5124990;28;19907;-48
2021/06/30 08:54:12;;;;;;;;;;;26.10;92.10;;;;;;5125049;28;19950;-51
2021/06/30 08:56:40;;;;;;;;;;;26.10;92.10;;;;;;5125107;28;19904;-47
2021/06/30 08:59:06;;;;;;;;;;;26.10;92.00;;;;;;5124968;28;19919;-48
2021/06/30 09:01:33;;;;;;;;;;;26.10;92.10;;;;;;5124843;28;19967;-49
2021/06/30 09:04:00;;;;;;;;;;;26.00;92.00;;;;;;5125028;28;19912;-48
2021/06/30 09:06:27;;;;;;;;;;;26.00;91.90;;;;;;5124756;28;19908;-50
2021/06/30 09:08:54;;;;;;;;;;;26.10;91.90;;;;;;5124786;28;19912;-49
2021/06/30 09:11:25;;;;;;;;;;;26.10;91.80;;;;;;5124811;28;19986;-53
2021/06/30 09:14:08;;;;;;;;;;;26.00;91.80;;;;;;5124713;28;19919;-52
2021/06/30 09:16:56;;;;;;;;;;;26.00;91.90;;;;;;5124831;28;19995;-51
2021/06/30 09:19:42;;;;;;;;;;;26.00;91.80;;;;;;5124775;28;20122;-50
2021/06/30 09:22:08;;;;;;;;;;;26.00;91.80;;;;;;5124699;28;19904;-47
2021/06/30 09:24:36;;;;;;;;;;;26.00;91.80;;;;;;5124844;28;19919;-48
2021/06/30 09:27:03;;;;;;;;;;;26.00;91.80;;;;;;5124648;28;19908;-48
2021/06/30 09:29:29;;;;;;;;;;;26.00;91.80;;;;;;5124901;28;19911;-49
2021/06/30 09:31:55;;;;;;;;;;;25.90;91.90;;;;;;5124555;28;20211;-50
2021/06/30 09:34:25;;;;;;;;;;;25.90;91.90;;;;;;5124990;28;19912;-49
2021/06/30 09:36:58;;;;;;;;;;;25.90;91.90;;;;;;5124624;28;19927;-48
2021/06/30 09:39:24;;;;;;;;;;;25.90;92.00;;;;;;5102849;28;19982;-47
2021/06/30 09:42:01;;;;;;;;;;;25.90;92.00;;;;;;5104384;28;19904;-49
2021/06/30 09:44:33;;;;;;;;;;;25.90;92.00;;;;;;5104298;28;20245;-53
2021/06/30 09:46:59;;;;;;;;;;;25.90;92.00;;;;;;5104000;28;19912;-49
2021/06/30 09:49:28;;;;;;;;;;;25.90;92.00;;;;;;5104383;28;19912;-52
2021/06/30 09:52:10;;;;;;;;;;;25.80;92.00;;;;;;5103988;28;19908;-52
2021/06/30 09:54:38;;;;;;;;;;;25.80;92.00;;;;;;5104297;28;19949;-48
2021/06/30 09:57:09;;;;;;;;;;;25.80;92.00;;;;;;5103988;28;19926;-50
2021/06/30 09:59:37;;;;;;;;;;;25.80;92.00;;;;;;5104264;28;19912;-49
2021/06/30 10:02:14;;;;;;;;;;;25.80;92.00;;;;;;5103968;28;19904;-49
2021/06/30 10:04:40;;;;;;;;;;;25.80;92.00;;;;;;5104118;28;19916;-50
2021/06/30 10:07:10;;;;;;;;;;;25.80;91.90;;;;;;5103956;28;19908;-50
2021/06/30 10:09:39;;;;;;;;;;;25.80;91.90;;;;;;5104179;28;20188;-52
2021/06/30 10:12:12;;;;;;;;;;;25.80;91.80;;;;;;5103806;28;19936;-48
2021/06/30 10:14:39;;;;;;;;;;;25.80;91.80;;;;;;5104370;28;19912;-48
2021/06/30 10:17:07;;;;;;;;;;;25.80;91.70;;;;;;5107377;28;19905;-51
2021/06/30 10:19:35;;;;;;;;;;;25.80;91.70;;;;;;5107878;28;20077;-50
2021/06/30 10:22:01;;;;;;;;;;;25.80;91.60;;;;;;5107454;28;19904;-51
2021/06/30 10:24:28;;;;;;;;;;;25.80;91.70;;;;;;5107307;28;19912;-53
2021/06/30 10:26:54;;;;;;;;;;;25.80;91.70;;;;;;5107306;28;19939;-51
2021/06/30 10:29:23;;;;;;;;;;;25.80;91.70;;;;;;5107466;28;19912;-50
2021/06/30 10:31:49;;;;;;;;;;;25.80;91.60;;;;;;5107216;28;19931;-51
2021/06/30 10:34:16;;;;;;;;;;;25.80;91.70;;;;;;5107349;28;19919;-48
2021/06/30 10:36:53;;;;;;;;;;;25.80;91.60;;;;;;5107184;28;19908;-49
2021/06/30 10:39:38;;;;;;;;;;;25.80;91.60;;;;;;5114842;28;19931;-48
2021/06/30 10:42:23;;;;;;;;;;;25.80;91.60;;;;;;5127545;28;19904;-50
2021/06/30 10:44:52;;;;;;;;;;;25.80;91.50;;;;;;5127984;28;19915;-47
2021/06/30 10:47:29;;;;;;;;;;;25.80;91.50;;;;;;5109159;28;19911;-47
2021/06/30 10:50:14;;;;;;;;;;;25.80;91.50;;;;;;5127552;28;19943;-47
2021/06/30 10:52:40;;;;;;;;;;;25.70;91.50;;;;;;5127450;28;19930;-49
2021/06/30 10:55:07;;;;;;;;;;;25.80;91.50;;;;;;5127520;28;19912;-47
2021/06/30 10:57:33;;;;;;;;;;;25.70;91.40;;;;;;5127326;28;19910;-53
2021/06/30 11:00:03;;;;;;;;;;;25.70;91.40;;;;;;5127475;28;19912;-54
2021/06/30 11:02:33;;;;;;;;;;;25.70;91.40;;;;;;5126989;28;19971;-51
2021/06/30 11:05:14;;;;;;;;;;;25.70;91.30;;;;;;5127362;28;19915;-48
2021/06/30 11:07:41;;;;;;;;;;;25.80;91.30;;;;;;5126776;28;19923;-52
2021/06/30 11:10:17;;;;;;;;;;;25.70;91.30;;;;;;5127522;28;20126;-55
2021/06/30 11:12:53;;;;;;;;;;;25.70;91.30;;;;;;5126893;28;19926;-50
2021/06/30 11:15:38;;;;;;;;;;;25.80;91.40;;;;;;5127280;28;20194;-54
2021/06/30 11:18:24;;;;;;;;;;;25.70;91.40;;;;;;5126854;28;19908;-49
2021/06/30 11:20:51;;;;;;;;;;;25.70;91.40;;;;;;5126834;28;19912;-51
2021/06/30 11:23:36;;;;;;;;;;;25.70;91.50;;;;;;5126716;28;19924;-46
2021/06/30 11:26:22;;;;;;;;;;;25.70;91.50;;;;;;5126110;28;19987;-53
2021/06/30 11:28:48;;;;;;;;;;;25.70;91.40;;;;;;5126355;28;20214;-48
2021/06/30 11:31:26;;;;;;;;;;;25.70;91.50;;;;;;5126559;28;20012;-51
2021/06/30 11:34:08;;;;;;;;;;;25.80;91.40;;;;;;5126404;28;19940;-47
2021/06/30 11:36:38;;;;;;;;;;;25.80;91.40;;;;;;5126361;28;19903;-46
2021/06/30 11:39:08;;;;;;;;;;;25.70;91.40;;;;;;5126367;28;19923;-47
2021/06/30 11:41:47;;;;;;;;;;;25.70;91.50;;;;;;5126205;28;19930;-48
2021/06/30 11:44:18;;;;;;;;;;;25.70;91.50;;;;;;5126477;28;19982;-52
2021/06/30 11:46:45;;;;;;;;;;;25.70;91.50;;;;;;5125735;28;20204;-48
2021/06/30 11:49:16;;;;;;;;;;;25.70;91.50;;;;;;5126385;28;19986;-48
2021/06/30 11:51:42;;;;;;;;;;;25.70;91.50;;;;;;5126383;28;19911;-50
2021/06/30 11:54:13;;;;;;;;;;;25.70;91.40;;;;;;5107530;28;19912;-50
2021/06/30 11:56:40;;;;;;;;;;;25.70;91.50;;;;;;5126172;28;19904;-49
2021/06/30 11:59:08;;;;;;;;;;;25.70;91.60;;;;;;5126145;28;19919;-47
2021/06/30 12:01:37;;;;;;;;;;;25.70;91.60;;;;;;5122253;28;19916;-47
2021/06/30 12:04:06;;;;;;;;;;;25.70;91.60;;;;;;5124131;28;19926;-46
2021/06/30 12:06:33;;;;;;;;;;;25.70;91.60;;;;;;5125712;27;19908;-55
2021/06/30 12:09:06;;;;;;;;;;;25.70;91.60;;;;;;5146409;27;20195;-46
2021/06/30 12:11:33;;;;;;;;;;;25.70;91.60;;;;;;5146081;27;19960;-49
2021/06/30 12:14:03;;;;;;;;;;;25.70;91.70;;;;;;5146064;27;20200;-46
2021/06/30 12:16:38;;;;;;;;;;;25.70;91.70;;;;;;5146191;27;19903;-48
2021/06/30 12:19:15;;;;;;;;;;;25.80;91.70;;;;;;5146121;27;19996;-47
2021/06/30 12:21:42;;;;;;;;;;;25.80;91.90;;;;;;5145796;27;19944;-53
2021/06/30 12:24:12;;;;;;;;;;;25.80;91.90;;;;;;5146323;27;20134;-60
2021/06/30 12:27:14;;;;;;;;;;;25.80;91.90;;;;;;5145550;27;20136;-45
2021/06/30 12:29:40;;;;;;;;;;;25.80;91.90;;;;;;5042790;28;19955;-46
2021/06/30 12:32:11;;;;;;;;;;;25.80;92.00;;;;;;5124963;27;19911;-44
2021/06/30 12:34:37;;;;;;;;;;;25.80;92.00;;;;;;5146143;27;19974;-56
2021/06/30 12:37:04;;;;;;;;;;;25.80;92.10;;;;;;5145663;27;19908;-49
2021/06/30 12:39:31;;;;;;;;;;;25.80;92.10;;;;;;5145467;27;20227;-47
2021/06/30 12:42:00;;;;;;;;;;;25.80;92.00;;;;;;5145463;27;19944;-48
2021/06/30 12:44:28;;;;;;;;;;;25.80;92.10;;;;;;5145919;27;19912;-49
2021/06/30 12:47:07;;;;;;;;;;;25.80;92.10;;;;;;5145697;27;19918;-48
2021/06/30 12:49:33;;;;;;;;;;;25.90;92.10;;;;;;5145824;27;19911;-49
2021/06/30 12:51:59;;;;;;;;;;;25.90;92.20;;;;;;5145368;27;19995;-47
2021/06/30 12:54:26;;;;;;;;;;;25.90;92.30;;;;;;5145939;27;19911;-47
2021/06/30 12:57:02;;;;;;;;;;;25.90;92.40;;;;;;5145330;27;19910;-55
2021/06/30 12:59:29;;;;;;;;;;;25.90;92.30;;;;;;5145738;27;19912;-58
2021/06/30 13:01:56;;;;;;;;;;;25.90;92.30;;;;;;5145521;27;19926;-46
2021/06/30 13:04:32;;;;;;;;;;;25.90;92.40;;;;;;5145644;27;19942;-49
2021/06/30 13:07:00;;;;;;;;;;;25.90;92.60;;;;;;5142051;27;20009;-53
2021/06/30 13:09:28;;;;;;;;;;;25.90;92.80;;;;;;5121791;28;19911;-48
2021/06/30 13:11:58;;;;;;;;;;;25.90;92.80;;;;;;5125519;28;19904;-51
2021/06/30 13:14:31;;;;;;;;;;;25.90;92.90;;;;;;5124846;28;19953;-46
2021/06/30 13:16:59;;;;;;;;;;;25.90;93.00;;;;;;5128227;28;19903;-50
2021/06/30 13:19:34;;;;;;;;;;;25.90;93.00;;;;;;5145471;28;19911;-51
2021/06/30 13:22:00;;;;;;;;;;;25.90;93.20;;;;;;5145037;28;19911;-55
2021/06/30 13:24:40;;;;;;;;;;;25.80;93.40;;;;;;5126934;28;19911;-52
2021/06/30 13:35:36;;;;;;;;;;;25.80;94.00;;;;;;5139260;28;19926;-51
2021/06/30 13:38:04;;;;;;;;;;;25.80;94.00;;;;;;5123390;28;19904;-48
2021/06/30 13:40:35;;;;;;;;;;;25.80;94.00;;;;;;5133482;28;19916;-56
2021/06/30 13:43:03;;;;;;;;;;;25.70;94.10;;;;;;5118536;28;19904;-49
2021/06/30 13:45:47;;;;;;;;;;;25.70;94.10;;;;;;5124935;28;19919;-48
2021/06/30 13:48:14;;;;;;;;;;;25.70;94.10;;;;;;5124289;28;19972;-47
2021/06/30 13:50:45;;;;;;;;;;;25.70;94.50;;;;;;5127145;28;19912;-52
2021/06/30 13:53:12;;;;;;;;;;;25.70;94.50;;;;;;5137796;27;20235;-48
2021/06/30 13:55:38;;;;;;;;;;;25.70;94.50;;;;;;5149557;27;19932;-48
2021/06/30 13:58:04;;;;;;;;;;;25.70;94.50;;;;;;5148878;27;20192;-48
2021/06/30 14:00:31;;;;;;;;;;;25.70;94.50;;;;;;5149285;27;19959;-50
2021/06/30 14:02:57;;;;;;;;;;;25.70;94.50;;;;;;5148892;27;19910;-51
2021/06/30 14:05:24;;;;;;;;;;;25.70;94.50;;;;;;5130684;27;20150;-49
2021/06/30 14:07:50;;;;;;;;;;;25.70;94.20;;;;;;5148543;27;19940;-51
2021/06/30 14:10:16;;;;;;;;;;;25.70;94.00;;;;;;5148995;27;19912;-46
2021/06/30 14:12:43;;;;;;;;;;;25.60;93.90;;;;;;5148463;27;19904;-47
2021/06/30 14:15:10;;;;;;;;;;;25.60;93.90;;;;;;5148905;27;19918;-56
2021/06/30 14:17:38;;;;;;;;;;;25.60;94.00;;;;;;5148461;27;19944;-47
2021/06/30 14:20:05;;;;;;;;;;;25.60;94.00;;;;;;5148734;27;19920;-48
2021/06/30 14:22:33;;;;;;;;;;;25.50;94.00;;;;;;5148127;27;20176;-47
2021/06/30 14:24:59;;;;;;;;;;;25.60;94.10;;;;;;5148824;27;20188;-46